x

Buoy B01 - Western Maine Shelf (44030) Wave Buoy

9:04 - Wed 31st Aug 2016 All times are EDT. -4 hours from GMT.

  • Sig Wave height 2.6ft
  • Peak Period 11s
  • Wind
    13mph
  • Sea Temp 66°f
  • Aire Temp 65°f
  • Sea Pressure 1013.6mb
  • Buoy B01 - Western Maine Shelf
  • Buoy B01 - Western Maine Shelf

More Historic Weather Station data

Upgrade to MSW Pro to gain access to the past 30 days of data for over 8000 Wavebouys and Weather Stations around the globe.

Join Pro

Comparision Forecast

View Surf forecast
   
mié 08/31 9:04 2.5ft 11s 13
mph
1013.6mb 66f 65f
8:04 3.5ft 11s 11 13 mph 1013.8mb 66f 65f
7:04 1.6ft 5s 11 13 mph 1013.8mb 66f 65f
6:04 3.5ft 11s 13 16 mph 1014.1mb 66f 65f
5:04 3.5ft 11s 13 16 mph 1014.4mb 66f 65f
4:04 3.5ft 11s 11 13 mph 1014.6mb 66f 65f
3:04 3.5ft 11s 7 9 mph 1015.1mb 66f 65f
2:04 3.5ft 11s 4 7 mph 1015.2mb 66f 65f
1:04 3.5ft 11s 4
mph
1015.6mb 66f 65f
12:04 3ft 11s 7 9 mph 1015.7mb 66f 66f
mar 08/30 11:04 2.5ft 11s 4
mph
1016.2mb 66f 65f
10:04 3ft 11s 2
mph
1016.4mb 66f 65f
9:04 2.5ft 11s 4
mph
1016.6mb 66f 66f
8:04 3ft 11s 11 13 mph 1016.6mb 66f 67f
7:04  -   -  13
mph
1016.5mb 66f 67f
6:04 3ft 11s 13 16 mph 1016.4mb 66f 68f
5:04  -   -  13 16 mph 1016.9mb 66f 68f
4:04 4.5ft 11s 16 18 mph 1017.2mb 67f 68f
3:04 4ft 11s 16 18 mph 1018.1mb 67f 68f
2:04 3ft 11s 11 13 mph 1018.5mb 67f 67f
1:04 2.5ft 11s 9 11 mph 1019.1mb 67f 67f
12:04 2.5ft 11s 9
mph
1019.8mb 67f 68f
11:04 2ft 11s 7 9 mph 1020.2mb 66f 68f
10:04 2.5ft 11s 4 7 mph 1020.7mb 65f 68f
9:04 2.5ft 11s 4
mph
1020.6mb 65f 65f
8:04 3ft 11s 7 9 mph 1020.7mb 65f 63f
7:04 2ft 11s 7 9 mph 1020.5mb 65f 64f
6:04 2.5ft 11s 7
mph
1020.3mb 65f 64f
5:04 2.5ft 11s 7
mph
1020.5mb 65f 64f
4:04 2.5ft 11s 9 11 mph 1020.6mb 65f 65f
3:04 1ft 5s 7 9 mph 1020.4mb 65f 64f
2:04 1ft 5s 9
mph
1020.2mb 65f 65f
1:04 2.5ft 11s 9
mph
1020.1mb 65f 65f
12:04 2.5ft 11s 9
mph
1020.3mb 65f 66f
lun 08/29 11:04 3ft 11s 7 9 mph 1020mb 65f 67f
10:04 1.3ft 3s 11 13 mph 1019.5mb 65f 68f
9:04 1.6ft 4s 11
mph
1019.1mb 65f 68f
8:04 1.6ft 3s 11 13 mph 1018.7mb 65f 69f
7:04 2.5ft 8s 11 13 mph 1018.2mb 65f 70f
6:04 2ft 8s 13 16 mph 1017.4mb 66f 72f
5:04 1.6ft 3s 13
mph
1016.8mb 66f 71f
4:04 1.6ft 3s 11 13 mph 1016.7mb 66f 71f
3:04 2.5ft 3s 16 18 mph 1016.6mb 66f 72f
2:04 2.5ft 3s 18 20 mph 1016.2mb 66f 73f
1:04 2.5ft 3s 16 18 mph 1015.7mb 66f 73f
12:04 2.5ft 5s 18 22 mph 1015.2mb 66f 73f
11:04 2ft 5s 13 16 mph 1015.2mb 66f 73f
10:04 2.5ft 5s 9
mph
1015.4mb 66f 69f
9:04 2.5ft 5s 11 13 mph 1015.7mb 65f 68f
8:04 2.5ft 5s 7 9 mph 1016.1mb 65f 67f
7:04 2.5ft 5s 11 13 mph 1016.1mb 66f 66f
6:04 3ft 5s 11 13 mph 1016.1mb 66f 66f
5:04 2.5ft 5s 13 16 mph 1016.5mb 66f 66f
4:04 2.5ft 5s 16 18 mph 1017.1mb 66f 66f
3:04 3ft 5s 18 20 mph 1017.5mb 66f 66f
2:04 3.5ft 5s 16 18 mph 1018mb 66f 66f
1:04 3.5ft 5s 13 16 mph 1018.5mb 66f 66f
12:04 4.5ft 5s 18 20 mph 1019mb 66f 67f
dom 08/28 11:04 3.5ft 5s 18 20 mph 1019.2mb 66f 68f
10:04 3.5ft 5s 18 22 mph 1019.6mb 67f 68f
9:04 2.5ft 4s 18 20 mph 1020mb 67f 67f
8:04 2.5ft 4s 16 18 mph 1020.4mb 67f 68f
7:04 2.5ft 8s 11 13 mph 1020.9mb 67f 68f
6:04 2ft 3s 16
mph
1021mb 67f 69f
5:04 2.5ft 8s 16 18 mph 1021.6mb 68f 69f
4:04 2ft 8s 13 18 mph 1022.4mb 68f 69f
3:04 1.6ft 8s 11 16 mph 1023.1mb 68f 69f
2:04 1.6ft 8s 13 16 mph 1023.8mb 68f 69f
1:04 1.3ft 8s 11 13 mph 1024.4mb 68f 69f
12:04 1ft 8s 9
mph
1024.9mb 68f 69f
11:04 1.3ft 11s 7 9 mph 1025.6mb 68f 69f
10:04 1ft 8s 7 9 mph 1025.6mb 68f 70f
9:04 1ft 8s 7
mph
1025.5mb 67f 72f
8:04 1.3ft 8s 2
mph
1025.4mb 67f 70f
7:04 1.3ft 8s 2
mph
1025.3mb 67f 66f
6:04 1.6ft 8s 2 4 mph 1025mb 67f 67f
5:04 1.3ft 8s 7
mph
1024.6mb 66f 67f
4:04 1.6ft 8s 4
mph
1024.2mb 66f 66f
3:04 1.3ft 8s 4
mph
1024.3mb 66f 66f
2:04 1.3ft 8s 4 7 mph 1024.5mb 67f 66f
1:04 1.3ft 8s 2 4 mph 1024.7mb 67f 66f
12:04 1.3ft 8s 2 4 mph 1024.7mb 67f 67f
sáb 08/27 11:04 1.3ft 11s 2
mph
1024.2mb 67f 67f
10:04 1.3ft 11s 2 4 mph 1023.8mb 67f 67f
9:04 1.6ft 11s  -  2 mph 1023.1mb 67f 67f
8:04 1.3ft 11s  -  2 mph 1022.5mb 68f 67f
7:04 1.3ft 8s 4
mph
1021.9mb 68f 68f
6:04 1.3ft 8s 7
mph
1021.7mb 68f 70f
5:04 1.3ft 11s 7
mph
1021.6mb 68f 70f
4:04 1.3ft 8s 7 9 mph 1021.5mb 68f 70f
3:04 1.3ft 11s 9
mph
1021.4mb 68f 70f